sensor_id;sensor_type;location;lat;lon;timestamp;pressure;altitude;pressure_sealevel;temperature;humidity
12781;BME280;6454;43.304;24.344;2022-08-01T00:02:15;99954.00;;;21.60;57.11
12781;BME280;6454;43.304;24.344;2022-08-01T00:04:42;99949.91;;;21.54;57.00
12781;BME280;6454;43.304;24.344;2022-08-01T00:07:11;99948.34;;;21.53;57.09
12781;BME280;6454;43.304;24.344;2022-08-01T00:09:37;99948.34;;;21.53;56.96
12781;BME280;6454;43.304;24.344;2022-08-01T00:12:05;99948.63;;;21.48;56.65
12781;BME280;6454;43.304;24.344;2022-08-01T00:14:32;99943.47;;;21.47;56.78
12781;BME280;6454;43.304;24.344;2022-08-01T00:16:59;99941.06;;;21.45;56.93
12781;BME280;6454;43.304;24.344;2022-08-01T00:19:26;99936.41;;;21.49;56.65
12781;BME280;6454;43.304;24.344;2022-08-01T00:21:52;99930.19;;;21.52;56.55
12781;BME280;6454;43.304;24.344;2022-08-01T00:24:21;99883.44;;;21.21;56.22
12781;BME280;6454;43.304;24.344;2022-08-01T00:26:48;99936.13;;;21.54;56.27
12781;BME280;6454;43.304;24.344;2022-08-01T00:29:14;99926.41;;;21.60;56.25
12781;BME280;6454;43.304;24.344;2022-08-01T00:31:41;99926.44;;;21.64;56.45
12781;BME280;6454;43.304;24.344;2022-08-01T00:34:08;99922.31;;;21.73;57.00
12781;BME280;6454;43.304;24.344;2022-08-01T00:36:35;99918.63;;;21.66;57.32
12781;BME280;6454;43.304;24.344;2022-08-01T00:39:02;99917.44;;;21.67;56.83
12781;BME280;6454;43.304;24.344;2022-08-01T00:41:31;99909.53;;;21.65;56.18
12781;BME280;6454;43.304;24.344;2022-08-01T00:43:57;99905.59;;;21.66;56.09
12781;BME280;6454;43.304;24.344;2022-08-01T00:46:24;99902.34;;;21.61;55.89
12781;BME280;6454;43.304;24.344;2022-08-01T00:48:51;99897.25;;;21.63;56.21
12781;BME280;6454;43.304;24.344;2022-08-01T00:51:18;99912.09;;;21.55;56.09
12781;BME280;6454;43.304;24.344;2022-08-01T00:53:45;99855.56;;;21.26;56.22
12781;BME280;6454;43.304;24.344;2022-08-01T00:56:13;99904.34;;;21.41;56.13
12781;BME280;6454;43.304;24.344;2022-08-01T00:58:41;99902.19;;;21.31;56.10
12781;BME280;6454;43.304;24.344;2022-08-01T01:01:09;99908.53;;;21.35;56.34
12781;BME280;6454;43.304;24.344;2022-08-01T01:03:36;99905.56;;;21.25;56.20
12781;BME280;6454;43.304;24.344;2022-08-01T01:06:13;99900.44;;;21.23;56.74
12781;BME280;6454;43.304;24.344;2022-08-01T01:08:44;99898.09;;;21.06;57.21
12781;BME280;6454;43.304;24.344;2022-08-01T01:11:20;99896.03;;;21.03;56.85
12781;BME280;6454;43.304;24.344;2022-08-01T01:13:53;99897.38;;;21.09;57.12
12781;BME280;6454;43.304;24.344;2022-08-01T01:16:24;99902.81;;;21.05;57.41
12781;BME280;6454;43.304;24.344;2022-08-01T01:18:54;99884.56;;;21.01;56.76
12781;BME280;6454;43.304;24.344;2022-08-01T01:21:44;99896.03;;;21.03;56.90
12781;BME280;6454;43.304;24.344;2022-08-01T01:24:21;99884.19;;;21.02;57.30
12781;BME280;6454;43.304;24.344;2022-08-01T01:26:59;99876.94;;;20.94;57.48
12781;BME280;6454;43.304;24.344;2022-08-01T01:29:32;99886.69;;;21.07;57.42
12781;BME280;6454;43.304;24.344;2022-08-01T01:32:04;99886.69;;;21.07;57.60
12781;BME280;6454;43.304;24.344;2022-08-01T01:34:36;99884.56;;;21.01;57.13
12781;BME280;6454;43.304;24.344;2022-08-01T01:37:06;99889.19;;;20.97;56.94
12781;BME280;6454;43.304;24.344;2022-08-01T01:39:36;99885.06;;;20.87;57.13
12781;BME280;6454;43.304;24.344;2022-08-01T01:42:05;99884.78;;;20.92;57.07
12781;BME280;6454;43.304;24.344;2022-08-01T01:44:36;99885.84;;;20.88;57.12
12781;BME280;6454;43.304;24.344;2022-08-01T01:47:04;99884.91;;;20.80;57.08
12781;BME280;6454;43.304;24.344;2022-08-01T01:49:32;99884.09;;;20.80;57.28
12781;BME280;6454;43.304;24.344;2022-08-01T01:52:02;99876.72;;;20.84;57.21
12781;BME280;6454;43.304;24.344;2022-08-01T01:54:33;99882.25;;;20.84;57.75
12781;BME280;6454;43.304;24.344;2022-08-01T01:57:03;99875.25;;;20.90;57.47
12781;BME280;6454;43.304;24.344;2022-08-01T01:59:34;99869.59;;;20.83;57.26
12781;BME280;6454;43.304;24.344;2022-08-01T02:02:04;99869.88;;;20.97;57.25
12781;BME280;6454;43.304;24.344;2022-08-01T02:04:33;99870.41;;;21.02;56.93
12781;BME280;6454;43.304;24.344;2022-08-01T02:07:02;99861.44;;;21.05;58.36
12781;BME280;6454;43.304;24.344;2022-08-01T02:09:30;99865.25;;;21.01;59.17
12781;BME280;6454;43.304;24.344;2022-08-01T02:11:59;99842.13;;;20.86;59.63
12781;BME280;6454;43.304;24.344;2022-08-01T02:14:28;99867.13;;;20.97;59.91
12781;BME280;6454;43.304;24.344;2022-08-01T02:16:57;99869.22;;;20.84;59.78
12781;BME280;6454;43.304;24.344;2022-08-01T02:19:25;99869.16;;;20.81;60.87
12781;BME280;6454;43.304;24.344;2022-08-01T02:21:57;99869.50;;;20.79;60.54
12781;BME280;6454;43.304;24.344;2022-08-01T02:24:31;99867.84;;;20.75;60.75
12781;BME280;6454;43.304;24.344;2022-08-01T02:27:01;99860.75;;;20.74;61.54
12781;BME280;6454;43.304;24.344;2022-08-01T02:29:39;99867.13;;;20.78;61.15
12781;BME280;6454;43.304;24.344;2022-08-01T02:32:11;99863.22;;;20.79;61.78
12781;BME280;6454;43.304;24.344;2022-08-01T02:34:40;99865.53;;;20.77;62.30
12781;BME280;6454;43.304;24.344;2022-08-01T02:37:09;99858.78;;;20.74;62.88
12781;BME280;6454;43.304;24.344;2022-08-01T02:39:37;99866.97;;;20.71;62.71
12781;BME280;6454;43.304;24.344;2022-08-01T02:42:07;99869.38;;;20.72;63.17
12781;BME280;6454;43.304;24.344;2022-08-01T02:44:37;99852.69;;;20.65;63.42
12781;BME280;6454;43.304;24.344;2022-08-01T02:47:06;99835.97;;;20.39;63.90
12781;BME280;6454;43.304;24.344;2022-08-01T02:49:40;99863.22;;;20.44;62.35
12781;BME280;6454;43.304;24.344;2022-08-01T02:52:11;99864.22;;;20.36;61.00
12781;BME280;6454;43.304;24.344;2022-08-01T02:54:39;99864.75;;;20.41;60.38
12781;BME280;6454;43.304;24.344;2022-08-01T02:57:08;99868.09;;;20.50;60.04
12781;BME280;6454;43.304;24.344;2022-08-01T02:59:38;99862.59;;;20.50;59.94
12781;BME280;6454;43.304;24.344;2022-08-01T03:02:07;99861.78;;;20.50;60.17
12781;BME280;6454;43.304;24.344;2022-08-01T03:04:37;99857.06;;;20.50;60.40
12781;BME280;6454;43.304;24.344;2022-08-01T03:07:06;99860.69;;;20.54;60.60
12781;BME280;6454;43.304;24.344;2022-08-01T03:09:42;99860.06;;;20.61;60.58
12781;BME280;6454;43.304;24.344;2022-08-01T03:12:11;99854.13;;;20.59;60.02
12781;BME280;6454;43.304;24.344;2022-08-01T03:14:41;99852.63;;;20.62;59.59
12781;BME280;6454;43.304;24.344;2022-08-01T03:17:09;99854.63;;;20.65;59.18
12781;BME280;6454;43.304;24.344;2022-08-01T03:19:39;99848.97;;;20.58;58.87
12781;BME280;6454;43.304;24.344;2022-08-01T03:22:09;99845.78;;;20.55;58.75
12781;BME280;6454;43.304;24.344;2022-08-01T03:24:39;99855.66;;;20.57;58.56
12781;BME280;6454;43.304;24.344;2022-08-01T03:27:07;99854.84;;;20.56;58.60
12781;BME280;6454;43.304;24.344;2022-08-01T03:29:36;99858.56;;;20.64;58.20
12781;BME280;6454;43.304;24.344;2022-08-01T03:32:05;99849.84;;;20.62;58.34
12781;BME280;6454;43.304;24.344;2022-08-01T03:34:32;99865.38;;;20.70;58.20
12781;BME280;6454;43.304;24.344;2022-08-01T03:37:04;99863.91;;;20.57;57.88
12781;BME280;6454;43.304;24.344;2022-08-01T03:39:36;99859.13;;;20.53;57.85
12781;BME280;6454;43.304;24.344;2022-08-01T03:42:09;99864.25;;;20.55;57.93
12781;BME280;6454;43.304;24.344;2022-08-01T03:44:38;99863.47;;;20.54;57.46
12781;BME280;6454;43.304;24.344;2022-08-01T03:47:09;99864.97;;;20.52;58.02
12781;BME280;6454;43.304;24.344;2022-08-01T03:49:41;99869.22;;;20.65;58.09
12781;BME280;6454;43.304;24.344;2022-08-01T03:52:10;99859.78;;;20.66;58.23
12781;BME280;6454;43.304;24.344;2022-08-01T03:54:41;99861.03;;;20.69;58.29
12781;BME280;6454;43.304;24.344;2022-08-01T03:57:10;99859.38;;;20.64;58.10
12781;BME280;6454;43.304;24.344;2022-08-01T03:59:37;99866.47;;;20.65;57.61
12781;BME280;6454;43.304;24.344;2022-08-01T04:02:06;99815.34;;;20.33;57.39
12781;BME280;6454;43.304;24.344;2022-08-01T04:04:33;99868.50;;;20.68;56.78
12781;BME280;6454;43.304;24.344;2022-08-01T04:07:01;99860.66;;;20.70;55.90
12781;BME280;6454;43.304;24.344;2022-08-01T04:09:33;99873.72;;;20.73;55.77
12781;BME280;6454;43.304;24.344;2022-08-01T04:12:00;99875.41;;;20.78;55.18
12781;BME280;6454;43.304;24.344;2022-08-01T04:14:28;99857.63;;;20.75;55.04
12781;BME280;6454;43.304;24.344;2022-08-01T04:16:54;99872.78;;;20.85;54.89
12781;BME280;6454;43.304;24.344;2022-08-01T04:19:21;99869.03;;;20.93;54.41
12781;BME280;6454;43.304;24.344;2022-08-01T04:21:49;99869.16;;;21.00;54.15
12781;BME280;6454;43.304;24.344;2022-08-01T04:24:17;99843.56;;;20.80;53.95
12781;BME280;6454;43.304;24.344;2022-08-01T04:26:47;99865.19;;;20.97;53.84
12781;BME280;6454;43.304;24.344;2022-08-01T04:29:19;99869.13;;;20.96;54.21
12781;BME280;6454;43.304;24.344;2022-08-01T04:31:48;99866.28;;;20.93;53.98
12781;BME280;6454;43.304;24.344;2022-08-01T04:34:17;99861.91;;;20.92;54.23
12781;BME280;6454;43.304;24.344;2022-08-01T04:36:48;99858.44;;;20.95;53.93
12781;BME280;6454;43.304;24.344;2022-08-01T04:39:18;99857.16;;;21.08;53.31
12781;BME280;6454;43.304;24.344;2022-08-01T04:41:47;99861.09;;;21.26;53.72
12781;BME280;6454;43.304;24.344;2022-08-01T04:44:15;99859.69;;;21.36;53.23
12781;BME280;6454;43.304;24.344;2022-08-01T04:46:43;99861.59;;;21.54;52.13
12781;BME280;6454;43.304;24.344;2022-08-01T04:49:11;99856.78;;;21.70;50.13
12781;BME280;6454;43.304;24.344;2022-08-01T04:51:49;99858.16;;;22.03;47.75
12781;BME280;6454;43.304;24.344;2022-08-01T04:54:16;99849.53;;;22.30;47.50
12781;BME280;6454;43.304;24.344;2022-08-01T04:56:43;99844.72;;;22.54;46.31
12781;BME280;6454;43.304;24.344;2022-08-01T04:59:12;99848.88;;;22.67;45.67
12781;BME280;6454;43.304;24.344;2022-08-01T05:01:56;99847.91;;;22.82;45.15
12781;BME280;6454;43.304;24.344;2022-08-01T05:04:23;99849.66;;;22.93;43.95
12781;BME280;6454;43.304;24.344;2022-08-01T05:06:50;99839.91;;;23.06;44.16
12781;BME280;6454;43.304;24.344;2022-08-01T05:09:17;99841.25;;;23.20;44.42
12781;BME280;6454;43.304;24.344;2022-08-01T05:11:44;99835.03;;;23.30;43.01
12781;BME280;6454;43.304;24.344;2022-08-01T05:14:12;99834.78;;;23.38;43.54
12781;BME280;6454;43.304;24.344;2022-08-01T05:16:39;99845.53;;;23.47;42.65
12781;BME280;6454;43.304;24.344;2022-08-01T05:19:07;99837.34;;;23.61;42.91
12781;BME280;6454;43.304;24.344;2022-08-01T05:21:34;99801.25;;;23.47;42.71
12781;BME280;6454;43.304;24.344;2022-08-01T05:24:01;99846.22;;;23.77;41.93
12781;BME280;6454;43.304;24.344;2022-08-01T05:26:28;99842.00;;;23.90;41.92
12781;BME280;6454;43.304;24.344;2022-08-01T05:28:55;99842.47;;;23.99;41.45
12781;BME280;6454;43.304;24.344;2022-08-01T05:31:23;99842.19;;;24.08;39.98
12781;BME280;6454;43.304;24.344;2022-08-01T05:33:50;99837.06;;;24.13;40.61
12781;BME280;6454;43.304;24.344;2022-08-01T05:36:17;99828.81;;;24.20;40.19
12781;BME280;6454;43.304;24.344;2022-08-01T05:38:44;99837.19;;;24.27;40.26
12781;BME280;6454;43.304;24.344;2022-08-01T05:41:11;99840.75;;;24.31;39.92
12781;BME280;6454;43.304;24.344;2022-08-01T05:43:38;99840.75;;;24.31;39.12
12781;BME280;6454;43.304;24.344;2022-08-01T05:46:05;99823.69;;;24.26;39.62
12781;BME280;6454;43.304;24.344;2022-08-01T05:48:33;99851.53;;;24.44;39.33
12781;BME280;6454;43.304;24.344;2022-08-01T05:51:00;99843.22;;;24.40;39.72
12781;BME280;6454;43.304;24.344;2022-08-01T05:53:27;99844.06;;;24.51;39.33
12781;BME280;6454;43.304;24.344;2022-08-01T05:55:54;99848.06;;;24.57;39.06
12781;BME280;6454;43.304;24.344;2022-08-01T05:58:21;99806.75;;;24.38;38.95
12781;BME280;6454;43.304;24.344;2022-08-01T06:00:48;99847.31;;;24.67;38.62
12781;BME280;6454;43.304;24.344;2022-08-01T06:03:15;99846.53;;;24.67;38.50
12781;BME280;6454;43.304;24.344;2022-08-01T06:05:43;99839.41;;;24.69;38.76
12781;BME280;6454;43.304;24.344;2022-08-01T06:08:10;99857.72;;;24.77;38.93
12781;BME280;6454;43.304;24.344;2022-08-01T06:10:37;99852.91;;;24.74;38.91
12781;BME280;6454;43.304;24.344;2022-08-01T06:13:04;99848.56;;;24.77;38.74
12781;BME280;6454;43.304;24.344;2022-08-01T06:15:31;99843.88;;;24.84;38.38
12781;BME280;6454;43.304;24.344;2022-08-01T06:17:58;99776.66;;;24.44;37.88
12781;BME280;6454;43.304;24.344;2022-08-01T06:20:25;99852.19;;;24.88;38.13
12781;BME280;6454;43.304;24.344;2022-08-01T06:22:54;99826.75;;;24.72;37.50
12781;BME280;6454;43.304;24.344;2022-08-01T06:25:21;99851.44;;;24.91;37.57
12781;BME280;6454;43.304;24.344;2022-08-01T06:27:48;99849.09;;;24.96;37.88
12781;BME280;6454;43.304;24.344;2022-08-01T06:30:15;99856.66;;;25.07;38.53
12781;BME280;6454;43.304;24.344;2022-08-01T06:32:42;99848.72;;;25.09;38.34
12781;BME280;6454;43.304;24.344;2022-08-01T06:35:09;99864.22;;;25.10;38.20
12781;BME280;6454;43.304;24.344;2022-08-01T06:37:35;99851.06;;;25.03;38.74
12781;BME280;6454;43.304;24.344;2022-08-01T06:40:06;99858.66;;;25.13;38.00
12781;BME280;6454;43.304;24.344;2022-08-01T06:42:33;99867.41;;;25.15;38.37
12781;BME280;6454;43.304;24.344;2022-08-01T06:45:01;99869.41;;;25.22;38.63
12781;BME280;6454;43.304;24.344;2022-08-01T06:47:28;99860.69;;;25.27;37.97
12781;BME280;6454;43.304;24.344;2022-08-01T06:49:55;99876.19;;;25.31;38.39
12781;BME280;6454;43.304;24.344;2022-08-01T06:52:23;99882.56;;;25.39;38.38
12781;BME280;6454;43.304;24.344;2022-08-01T06:54:50;99875.81;;;25.43;38.43
12781;BME280;6454;43.304;24.344;2022-08-01T06:57:18;99869.53;;;25.53;38.89
12781;BME280;6454;43.304;24.344;2022-08-01T06:59:45;99869.53;;;25.60;38.06
12781;BME280;6454;43.304;24.344;2022-08-01T07:02:12;99869.53;;;25.60;38.04
12781;BME280;6454;43.304;24.344;2022-08-01T07:04:39;99872.34;;;25.68;38.22
12781;BME280;6454;43.304;24.344;2022-08-01T07:07:06;99864.41;;;25.70;38.54
12781;BME280;6454;43.304;24.344;2022-08-01T07:09:32;99863.63;;;25.83;37.62
12781;BME280;6454;43.304;24.344;2022-08-01T07:11:59;99878.31;;;25.84;38.24
12781;BME280;6454;43.304;24.344;2022-08-01T07:14:28;99873.16;;;25.86;38.96
12781;BME280;6454;43.304;24.344;2022-08-01T07:16:55;99876.31;;;25.88;38.49
12781;BME280;6454;43.304;24.344;2022-08-01T07:19:22;99890.63;;;25.93;38.17
12781;BME280;6454;43.304;24.344;2022-08-01T07:21:49;99873.56;;;25.95;38.47
12781;BME280;6454;43.304;24.344;2022-08-01T07:24:16;99879.09;;;26.05;38.93
12781;BME280;6454;43.304;24.344;2022-08-01T07:26:44;99879.94;;;26.13;38.62
12781;BME280;6454;43.304;24.344;2022-08-01T07:29:12;99885.53;;;26.20;38.28
12781;BME280;6454;43.304;24.344;2022-08-01T07:31:40;99891.84;;;26.28;38.51
12781;BME280;6454;43.304;24.344;2022-08-01T07:34:07;99881.94;;;26.34;38.35
12781;BME280;6454;43.304;24.344;2022-08-01T07:36:35;99887.09;;;26.39;38.87
12781;BME280;6454;43.304;24.344;2022-08-01T07:39:02;99879.56;;;26.32;38.21
12781;BME280;6454;43.304;24.344;2022-08-01T07:41:28;99880.31;;;26.33;38.84
12781;BME280;6454;43.304;24.344;2022-08-01T07:43:55;99870.00;;;26.40;37.90
12781;BME280;6454;43.304;24.344;2022-08-01T07:46:22;99884.69;;;26.44;38.13
12781;BME280;6454;43.304;24.344;2022-08-01T07:48:51;99889.84;;;26.53;38.47
12781;BME280;6454;43.304;24.344;2022-08-01T07:51:17;99882.69;;;26.59;37.77
12781;BME280;6454;43.304;24.344;2022-08-01T07:53:44;99876.72;;;26.60;37.93
12781;BME280;6454;43.304;24.344;2022-08-01T07:56:11;99874.75;;;26.64;37.51
12781;BME280;6454;43.304;24.344;2022-08-01T07:58:38;99883.47;;;26.70;37.80
12781;BME280;6454;43.304;24.344;2022-08-01T08:01:06;99877.47;;;26.75;37.21
12781;BME280;6454;43.304;24.344;2022-08-01T08:03:33;99879.47;;;26.71;37.92
12781;BME280;6454;43.304;24.344;2022-08-01T08:06:01;99869.94;;;26.86;38.16
12781;BME280;6454;43.304;24.344;2022-08-01T08:08:28;99884.25;;;26.84;38.15
12781;BME280;6454;43.304;24.344;2022-08-01T08:10:55;99880.25;;;26.85;37.21
12781;BME280;6454;43.304;24.344;2022-08-01T08:13:22;99889.41;;;26.82;37.84
12781;BME280;6454;43.304;24.344;2022-08-01T08:15:48;99894.56;;;26.88;38.07
12781;BME280;6454;43.304;24.344;2022-08-01T08:18:15;99892.16;;;26.97;37.76
12781;BME280;6454;43.304;24.344;2022-08-01T08:20:42;99890.97;;;26.94;37.80
12781;BME280;6454;43.304;24.344;2022-08-01T08:23:11;99859.56;;;26.90;37.47
12781;BME280;6454;43.304;24.344;2022-08-01T08:25:51;99876.16;;;27.18;37.96
12781;BME280;6454;43.304;24.344;2022-08-01T08:28:18;99899.66;;;27.14;37.42
12781;BME280;6454;43.304;24.344;2022-08-01T08:30:45;99885.75;;;27.14;37.86
12781;BME280;6454;43.304;24.344;2022-08-01T08:33:12;99869.75;;;27.25;37.83
12781;BME280;6454;43.304;24.344;2022-08-01T08:35:39;99896.44;;;27.26;37.07
12781;BME280;6454;43.304;24.344;2022-08-01T08:38:07;99877.78;;;27.19;37.92
12781;BME280;6454;43.304;24.344;2022-08-01T08:40:36;99874.56;;;27.21;37.37
12781;BME280;6454;43.304;24.344;2022-08-01T08:43:05;99865.78;;;27.29;37.63
12781;BME280;6454;43.304;24.344;2022-08-01T08:45:32;99870.50;;;27.36;37.64
12781;BME280;6454;43.304;24.344;2022-08-01T08:48:00;99870.88;;;27.45;37.67
12781;BME280;6454;43.304;24.344;2022-08-01T08:50:28;99873.66;;;27.52;37.13
12781;BME280;6454;43.304;24.344;2022-08-01T08:52:55;99863.69;;;27.51;36.99
12781;BME280;6454;43.304;24.344;2022-08-01T08:55:22;99866.47;;;27.51;36.48
12781;BME280;6454;43.304;24.344;2022-08-01T08:57:51;99875.28;;;27.46;36.80
12781;BME280;6454;43.304;24.344;2022-08-01T09:00:19;99864.06;;;27.53;36.92
12781;BME280;6454;43.304;24.344;2022-08-01T09:02:47;99866.81;;;27.60;36.77
12781;BME280;6454;43.304;24.344;2022-08-01T09:05:16;99869.53;;;27.74;36.53
12781;BME280;6454;43.304;24.344;2022-08-01T09:07:44;99867.06;;;27.80;36.54
12781;BME280;6454;43.304;24.344;2022-08-01T09:10:11;99870.34;;;27.68;36.08
12781;BME280;6454;43.304;24.344;2022-08-01T09:12:38;99858.38;;;27.74;36.30
12781;BME280;6454;43.304;24.344;2022-08-01T09:15:07;99864.66;;;27.85;36.00
12781;BME280;6454;43.304;24.344;2022-08-01T09:17:40;99848.78;;;27.79;36.64
12781;BME280;6454;43.304;24.344;2022-08-01T09:20:08;99871.03;;;27.86;35.53
12781;BME280;6454;43.304;24.344;2022-08-01T09:22:48;99862.34;;;27.73;35.71
12781;BME280;6454;43.304;24.344;2022-08-01T09:25:15;99859.19;;;27.68;35.99
12781;BME280;6454;43.304;24.344;2022-08-01T09:27:42;99865.56;;;27.72;36.16
12781;BME280;6454;43.304;24.344;2022-08-01T09:30:12;99860.75;;;27.72;35.53
12781;BME280;6454;43.304;24.344;2022-08-01T09:32:54;99850.78;;;27.78;35.57
12781;BME280;6454;43.304;24.344;2022-08-01T09:35:23;99857.41;;;27.95;35.91
12781;BME280;6454;43.304;24.344;2022-08-01T09:37:50;99858.25;;;27.92;35.73
12781;BME280;6454;43.304;24.344;2022-08-01T09:40:17;99855.38;;;28.06;35.87
12781;BME280;6454;43.304;24.344;2022-08-01T09:42:44;99852.13;;;28.15;35.23
12781;BME280;6454;43.304;24.344;2022-08-01T09:48:12;99874.75;;;28.20;35.26
12781;BME280;6454;43.304;24.344;2022-08-01T09:50:42;99853.53;;;28.33;35.22
12781;BME280;6454;43.304;24.344;2022-08-01T09:53:12;99856.25;;;28.40;34.94
12781;BME280;6454;43.304;24.344;2022-08-01T09:55:40;99856.69;;;28.35;35.60
12781;BME280;6454;43.304;24.344;2022-08-01T09:58:07;99867.31;;;28.51;35.26
12781;BME280;6454;43.304;24.344;2022-08-01T10:00:36;99862.44;;;28.62;34.35
12781;BME280;6454;43.304;24.344;2022-08-01T10:05:59;99853.34;;;28.92;34.21
12781;BME280;6454;43.304;24.344;2022-08-01T10:08:25;99848.94;;;28.94;34.94
12781;BME280;6454;43.304;24.344;2022-08-01T10:11:11;99854.06;;;28.99;33.84
12781;BME280;6454;43.304;24.344;2022-08-01T10:13:38;99842.09;;;28.99;33.25
12781;BME280;6454;43.304;24.344;2022-08-01T10:16:06;99828.53;;;28.97;33.95
12781;BME280;6454;43.304;24.344;2022-08-01T10:18:34;99837.09;;;29.13;33.06
12781;BME280;6454;43.304;24.344;2022-08-01T10:21:03;99839.69;;;29.31;33.38
12781;BME280;6454;43.304;24.344;2022-08-01T10:23:34;99847.38;;;29.23;33.60
12781;BME280;6454;43.304;24.344;2022-08-01T10:26:03;99846.53;;;29.26;32.40
12781;BME280;6454;43.304;24.344;2022-08-01T10:28:31;99835.38;;;29.26;33.18
12781;BME280;6454;43.304;24.344;2022-08-01T10:30:58;99833.03;;;29.52;33.01
12781;BME280;6454;43.304;24.344;2022-08-01T10:33:25;99828.41;;;29.65;33.13
12781;BME280;6454;43.304;24.344;2022-08-01T10:35:52;99833.41;;;29.50;33.10
12781;BME280;6454;43.304;24.344;2022-08-01T10:38:20;99844.16;;;29.25;32.64
12781;BME280;6454;43.304;24.344;2022-08-01T10:40:49;99845.66;;;28.99;32.55
12781;BME280;6454;43.304;24.344;2022-08-01T10:43:17;99829.19;;;29.08;33.53
12781;BME280;6454;43.304;24.344;2022-08-01T10:45:44;99831.16;;;29.42;33.40
12781;BME280;6454;43.304;24.344;2022-08-01T10:48:16;99830.94;;;29.56;33.10
12781;BME280;6454;43.304;24.344;2022-08-01T10:50:46;99805.78;;;29.56;32.78
12781;BME280;6454;43.304;24.344;2022-08-01T10:53:16;99808.66;;;29.79;33.11
12781;BME280;6454;43.304;24.344;2022-08-01T10:55:51;99825.38;;;30.06;32.40
12781;BME280;6454;43.304;24.344;2022-08-01T10:58:22;99829.50;;;29.97;31.75
12781;BME280;6454;43.304;24.344;2022-08-01T11:01:21;99826.41;;;29.92;32.63
12781;BME280;6454;43.304;24.344;2022-08-01T11:04:07;99823.25;;;29.90;32.54
12781;BME280;6454;43.304;24.344;2022-08-01T11:06:46;99825.88;;;30.01;32.63
12781;BME280;6454;43.304;24.344;2022-08-01T11:09:24;99834.25;;;30.01;31.79
12781;BME280;6454;43.304;24.344;2022-08-01T11:12:00;99818.28;;;30.01;32.27
12781;BME280;6454;43.304;24.344;2022-08-01T11:14:29;99827.50;;;30.21;31.36
12781;BME280;6454;43.304;24.344;2022-08-01T11:16:56;99825.44;;;30.02;31.32
12781;BME280;6454;43.304;24.344;2022-08-01T11:20:05;99821.75;;;29.82;31.92
12781;BME280;6454;43.304;24.344;2022-08-01T11:26:09;99814.25;;;30.02;32.22
12781;BME280;6454;43.304;24.344;2022-08-01T11:28:38;99803.78;;;29.83;32.37
12781;BME280;6454;43.304;24.344;2022-08-01T11:31:30;99802.09;;;29.62;32.71
12781;BME280;6454;43.304;24.344;2022-08-01T11:33:58;99787.44;;;29.55;32.54
12781;BME280;6454;43.304;24.344;2022-08-01T11:36:25;99786.06;;;29.66;32.87
12781;BME280;6454;43.304;24.344;2022-08-01T11:39:12;99780.03;;;29.68;32.64
12781;BME280;6454;43.304;24.344;2022-08-01T11:41:40;99784.09;;;29.90;32.49
12781;BME280;6454;43.304;24.344;2022-08-01T11:44:10;99780.31;;;30.00;31.97
12781;BME280;6454;43.304;24.344;2022-08-01T11:47:02;99777.41;;;29.84;32.21
12781;BME280;6454;43.304;24.344;2022-08-01T11:49:46;99787.94;;;29.73;32.48
12781;BME280;6454;43.304;24.344;2022-08-01T11:52:17;99792.63;;;29.56;33.22
12781;BME280;6454;43.304;24.344;2022-08-01T11:54:46;99797.03;;;29.54;32.69
12781;BME280;6454;43.304;24.344;2022-08-01T11:57:14;99747.69;;;29.44;32.15
12781;BME280;6454;43.304;24.344;2022-08-01T11:59:44;99782.63;;;29.82;32.52
12781;BME280;6454;43.304;24.344;2022-08-01T12:02:21;99785.31;;;29.89;32.59
12781;BME280;6454;43.304;24.344;2022-08-01T12:04:54;99783.94;;;29.74;31.85
12781;BME280;6454;43.304;24.344;2022-08-01T12:07:22;99758.63;;;29.58;32.42
12781;BME280;6454;43.304;24.344;2022-08-01T12:10:00;99768.53;;;29.89;31.92
12781;BME280;6454;43.304;24.344;2022-08-01T12:12:28;99772.94;;;30.10;32.01
12781;BME280;6454;43.304;24.344;2022-08-01T12:14:58;99764.97;;;30.31;31.82
12781;BME280;6454;43.304;24.344;2022-08-01T12:17:29;99771.16;;;30.42;31.19
12781;BME280;6454;43.304;24.344;2022-08-01T12:19:57;99758.81;;;30.59;30.02
12781;BME280;6454;43.304;24.344;2022-08-01T12:22:24;99774.63;;;30.70;30.19
12781;BME280;6454;43.304;24.344;2022-08-01T12:24:51;99743.13;;;30.66;29.67
12781;BME280;6454;43.304;24.344;2022-08-01T12:27:26;99766.28;;;30.86;29.65
12781;BME280;6454;43.304;24.344;2022-08-01T12:29:55;99757.59;;;30.80;29.38
12781;BME280;6454;43.304;24.344;2022-08-01T12:32:28;99751.00;;;30.71;29.57
12781;BME280;6454;43.304;24.344;2022-08-01T12:34:57;99749.19;;;30.80;29.96
12781;BME280;6454;43.304;24.344;2022-08-01T12:37:27;99767.38;;;30.72;29.80
12781;BME280;6454;43.304;24.344;2022-08-01T12:39:54;99749.13;;;30.64;30.35
12781;BME280;6454;43.304;24.344;2022-08-01T12:42:22;99752.56;;;30.52;30.24
12781;BME280;6454;43.304;24.344;2022-08-01T12:44:51;99753.22;;;30.59;30.19
12781;BME280;6454;43.304;24.344;2022-08-01T12:47:19;99758.31;;;30.65;30.31
12781;BME280;6454;43.304;24.344;2022-08-01T12:49:48;99753.81;;;30.71;29.70
12781;BME280;6454;43.304;24.344;2022-08-01T12:52:15;99730.66;;;30.67;29.75
12781;BME280;6454;43.304;24.344;2022-08-01T12:55:07;99726.72;;;30.64;30.21
12781;BME280;6454;43.304;24.344;2022-08-01T12:57:36;99732.03;;;30.78;30.17
12781;BME280;6454;43.304;24.344;2022-08-01T13:00:18;99734.25;;;30.87;30.33
12781;BME280;6454;43.304;24.344;2022-08-01T13:02:46;99737.41;;;30.89;29.48
12781;BME280;6454;43.304;24.344;2022-08-01T13:05:14;99738.56;;;30.72;29.84
12781;BME280;6454;43.304;24.344;2022-08-01T13:07:45;99722.66;;;30.69;30.05
12781;BME280;6454;43.304;24.344;2022-08-01T13:10:13;99731.34;;;30.94;29.83
12781;BME280;6454;43.304;24.344;2022-08-01T13:12:49;99739.19;;;30.99;29.77
12781;BME280;6454;43.304;24.344;2022-08-01T13:15:19;99726.22;;;30.89;29.88
12781;BME280;6454;43.304;24.344;2022-08-01T13:17:46;99720.38;;;30.99;30.01
12781;BME280;6454;43.304;24.344;2022-08-01T13:20:26;99711.22;;;31.15;28.59
12781;BME280;6454;43.304;24.344;2022-08-01T13:22:54;99717.63;;;31.15;29.52